Time;durP1;ratioP1;P1;durP2;ratioP2;P2;SDS_P1;SDS_P2;PMS_P1;PMS_P2;Temp;Humidity;BMP_temperature;BMP_pressure;BME280_temperature;BME280_humidity;BME280_pressure;Samples;Min_cycle;Max_cycle;Signal;HPM_P1;HPM_P2
2022/07/16 00:02:17;;;;;;;;;4.25;4.25;;;;;20.33;42.04;101308.00;6304472;22;45209;-62
2022/07/16 00:04:42;;;;;;;;;3.50;3.50;;;;;20.33;42.21;101305.31;6303727;22;45567;-62
2022/07/16 00:07:08;;;;;;;;;4.25;4.25;;;;;20.30;42.23;101298.34;6305423;22;45276;-62
2022/07/16 00:09:33;;;;;;;;;4.00;4.00;;;;;20.27;42.25;101306.59;6304468;22;45387;-61
2022/07/16 00:11:59;;;;;;;;;5.00;5.00;;;;;20.24;42.52;101306.81;6304548;22;45262;-63
2022/07/16 00:14:25;;;;;;;;;10.00;9.50;;;;;20.21;42.60;101310.56;6305174;22;45309;-61
2022/07/16 00:16:50;;;;;;;;;10.75;10.25;;;;;20.17;42.58;101310.88;6305303;22;45206;-63
2022/07/16 00:19:15;;;;;;;;;14.75;12.50;;;;;20.12;42.78;101305.81;6305614;22;45360;-63
2022/07/16 00:21:41;;;;;;;;;26.75;22.25;;;;;20.10;42.70;101299.75;6307172;22;45278;-67
2022/07/16 00:24:07;;;;;;;;;38.25;31.00;;;;;20.04;42.84;101294.81;6305414;22;45263;-66
2022/07/16 00:26:33;;;;;;;;;62.33;49.00;;;;;20.04;42.96;101305.50;6304864;22;45307;-67
2022/07/16 00:28:58;;;;;;;;;72.67;62.33;;;;;20.03;42.50;101302.00;6276717;22;47992;-64
2022/07/16 00:31:24;;;;;;;;;69.00;53.00;;;;;20.02;42.93;101310.97;6305645;22;45771;-64
2022/07/16 00:33:49;;;;;;;;;21.75;18.50;;;;;19.98;42.96;101310.31;6277464;22;45295;-63
2022/07/16 00:36:14;;;;;;;;;32.75;28.50;;;;;19.99;43.01;101312.00;6307101;22;45461;-61
2022/07/16 00:38:40;;;;;;;;;15.00;13.75;;;;;20.00;42.94;101304.88;6311117;22;46022;-62
2022/07/16 00:41:05;;;;;;;;;11.00;11.00;;;;;19.97;42.85;101308.59;6308928;22;45250;-62
2022/07/16 00:43:48;;;;;;;;;9.25;9.25;;;;;19.91;42.65;101301.00;6306955;22;45147;-65
2022/07/16 00:46:15;;;;;;;;;7.50;7.25;;;;;19.91;42.71;101317.03;6308052;22;45167;-66
2022/07/16 00:48:40;;;;;;;;;8.50;6.75;;;;;19.92;43.25;101315.22;6306832;22;45538;-61
2022/07/16 00:51:06;;;;;;;;;6.50;6.50;;;;;19.89;43.07;101312.75;6304341;22;45216;-61
2022/07/16 00:53:34;;;;;;;;;8.50;7.25;;;;;19.88;43.08;101314.53;6304696;22;45267;-61
2022/07/16 00:55:59;;;;;;;;;7.75;7.25;;;;;19.83;42.85;101314.00;6304208;22;45278;-60
2022/07/16 00:58:25;;;;;;;;;6.00;5.00;;;;;19.83;43.21;101304.19;6303899;22;46233;-61
2022/07/16 01:00:50;;;;;;;;;4.25;4.25;;;;;19.84;43.15;101308.56;6304432;22;45370;-68
2022/07/16 01:03:15;;;;;;;;;4.00;3.75;;;;;19.71;43.62;101300.53;6305368;22;45791;-61
2022/07/16 01:05:41;;;;;;;;;7.00;5.50;;;;;19.64;43.52;101296.56;6304552;22;45376;-68
2022/07/16 01:08:07;;;;;;;;;4.00;4.00;;;;;19.67;43.91;101306.19;6305415;22;46464;-68
2022/07/16 01:10:33;;;;;;;;;6.25;5.00;;;;;19.54;44.00;101293.63;6306280;22;45616;-66
2022/07/16 01:13:00;;;;;;;;;8.00;6.25;;;;;19.60;43.86;101312.88;6304252;22;45246;-68
2022/07/16 01:15:26;;;;;;;;;8.00;6.50;;;;;19.56;44.28;101313.06;6304469;22;45171;-68
2022/07/16 01:17:51;;;;;;;;;4.00;4.00;;;;;19.49;44.27;101308.25;6310695;22;45246;-70
2022/07/16 01:20:16;;;;;;;;;7.00;5.25;;;;;19.48;44.19;101314.56;6276427;22;45169;-62
2022/07/16 01:22:44;;;;;;;;;7.25;5.75;;;;;19.48;44.20;101315.41;6305096;22;45435;-67
2022/07/16 01:25:11;;;;;;;;;7.50;6.75;;;;;19.40;44.23;101304.38;6304505;22;45203;-67
2022/07/16 01:27:38;;;;;;;;;5.00;5.00;;;;;19.44;44.34;101310.38;6303737;22;46901;-69
2022/07/16 01:30:08;;;;;;;;;5.25;5.25;;;;;19.38;44.34;101300.97;6306495;22;45298;-69
2022/07/16 01:32:33;;;;;;;;;3.50;3.50;;;;;19.38;44.60;101312.50;6279881;22;45310;-70
2022/07/16 01:34:58;;;;;;;;;5.75;5.75;;;;;19.36;44.76;101310.88;6304559;22;45317;-63
2022/07/16 01:37:24;;;;;;;;;5.50;4.25;;;;;19.34;44.22;101310.13;6313691;22;46194;-62
2022/07/16 01:39:49;;;;;;;;;5.25;5.25;;;;;19.31;44.62;101307.66;6305806;22;45263;-62
2022/07/16 01:42:14;;;;;;;;;6.00;6.00;;;;;19.30;44.17;101312.16;6304224;22;45385;-65
2022/07/16 01:44:40;;;;;;;;;4.50;4.50;;;;;19.25;44.63;101312.44;6303969;22;45428;-64
2022/07/16 01:47:07;;;;;;;;;6.75;6.75;;;;;19.25;44.98;101315.09;6303744;22;45955;-63
2022/07/16 01:49:34;;;;;;;;;15.75;10.75;;;;;19.21;45.32;101318.09;6304014;22;45337;-68
2022/07/16 01:52:05;;;;;;;;;7.75;7.00;;;;;19.19;45.07;101310.19;6277311;22;45224;-67
2022/07/16 01:54:30;;;;;;;;;8.75;7.50;;;;;19.19;45.03;101318.16;6306590;22;45246;-70
2022/07/16 01:56:55;;;;;;;;;9.00;8.00;;;;;19.16;45.08;101314.88;6305141;22;45336;-67
2022/07/16 01:59:21;;;;;;;;;6.50;6.50;;;;;19.15;44.76;101316.66;6276816;22;53709;-70
2022/07/16 02:01:46;;;;;;;;;7.00;7.00;;;;;19.04;45.26;101303.16;6306194;22;45313;-65
2022/07/16 02:04:11;;;;;;;;;7.00;7.00;;;;;19.06;45.18;101310.09;6280654;22;45426;-66
2022/07/16 02:06:37;;;;;;;;;8.00;8.00;;;;;19.04;45.54;101316.50;6306010;22;45312;-64
2022/07/16 02:09:02;;;;;;;;;8.25;7.25;;;;;19.00;45.46;101312.31;6307460;22;45267;-67
2022/07/16 02:11:28;;;;;;;;;6.50;6.50;;;;;18.92;45.68;101308.31;6308206;22;45381;-69
2022/07/16 02:13:53;;;;;;;;;8.00;8.00;;;;;18.92;45.87;101307.44;6308549;22;45456;-69
2022/07/16 02:16:18;;;;;;;;;10.00;8.25;;;;;18.88;45.94;101306.78;6308738;22;45172;-64
2022/07/16 02:18:44;;;;;;;;;9.00;7.50;;;;;18.82;46.03;101308.03;6305718;22;49115;-65
2022/07/16 02:21:09;;;;;;;;;8.25;8.00;;;;;18.81;46.32;101305.47;6276564;22;45177;-69
2022/07/16 02:23:34;;;;;;;;;10.25;8.75;;;;;18.74;46.35;101297.00;6306600;22;45433;-65
2022/07/16 02:26:00;;;;;;;;;8.25;8.25;;;;;18.42;46.20;101251.94;6304959;22;46310;-66
2022/07/16 02:28:25;;;;;;;;;7.50;6.75;;;;;18.71;46.26;101305.19;6304693;22;45288;-65
2022/07/16 02:30:50;;;;;;;;;11.75;8.50;;;;;18.66;46.56;101302.84;6304160;22;45184;-61
2022/07/16 02:33:18;;;;;;;;;8.00;8.00;;;;;18.63;46.47;101307.47;6276897;22;45239;-62
2022/07/16 02:35:45;;;;;;;;;10.50;8.00;;;;;18.57;47.09;101306.06;6303475;22;45273;-67
2022/07/16 02:38:12;;;;;;;;;9.75;8.25;;;;;18.57;47.04;101315.88;6306214;22;45586;-68
2022/07/16 02:40:38;;;;;;;;;9.00;7.25;;;;;18.53;47.41;101317.84;6305481;22;45176;-62
2022/07/16 02:43:06;;;;;;;;;9.25;7.50;;;;;18.51;47.10;101306.44;6303920;22;45620;-68
2022/07/16 02:45:34;;;;;;;;;5.25;5.25;;;;;18.51;47.33;101315.28;6303585;22;45576;-67
2022/07/16 02:47:59;;;;;;;;;6.75;5.75;;;;;18.49;46.98;101311.88;6303534;22;45431;-66
2022/07/16 02:50:25;;;;;;;;;7.25;7.25;;;;;18.47;47.73;101324.44;6309905;22;45298;-65
2022/07/16 02:52:51;;;;;;;;;7.75;6.75;;;;;18.45;47.40;101318.34;6304797;22;45704;-65
2022/07/16 02:55:17;;;;;;;;;7.25;7.00;;;;;18.42;47.68;101310.53;6303976;22;46350;-61
2022/07/16 02:57:42;;;;;;;;;9.25;8.00;;;;;18.41;47.44;101319.47;6302913;22;45329;-60
2022/07/16 03:00:11;;;;;;;;;9.50;8.50;;;;;18.38;47.87;101315.19;6304149;22;45271;-62
2022/07/16 03:02:36;;;;;;;;;7.00;7.00;;;;;18.38;47.54;101307.19;6304373;22;45467;-61
2022/07/16 03:05:03;;;;;;;;;7.75;7.50;;;;;18.36;47.81;101309.09;6302596;22;45266;-61
2022/07/16 03:07:29;;;;;;;;;7.00;7.00;;;;;18.33;47.99;101311.09;6303282;22;45528;-64
2022/07/16 03:09:54;;;;;;;;;9.25;7.50;;;;;18.30;48.00;101303.31;6303578;22;45402;-63
2022/07/16 03:12:19;;;;;;;;;8.75;7.00;;;;;18.24;47.54;101300.06;6304223;22;45179;-64
2022/07/16 03:14:45;;;;;;;;;8.00;6.00;;;;;18.07;48.04;101274.47;6303691;22;46191;-63
2022/07/16 03:17:11;;;;;;;;;8.00;8.00;;;;;18.28;48.11;101308.72;6303600;22;45252;-64
2022/07/16 03:19:37;;;;;;;;;8.25;6.50;;;;;18.22;48.02;101303.75;6303025;22;45243;-59
2022/07/16 03:22:02;;;;;;;;;6.00;6.00;;;;;18.18;48.33;101307.56;6304357;22;45498;-64
2022/07/16 03:24:28;;;;;;;;;7.75;6.00;;;;;18.17;48.30;101308.50;6303239;22;46097;-63
2022/07/16 03:26:54;;;;;;;;;9.50;7.50;;;;;18.13;48.38;101307.00;6308403;22;45223;-61
2022/07/16 03:29:20;;;;;;;;;5.50;5.50;;;;;18.07;48.50;101302.91;6308730;22;45253;-61
2022/07/16 03:31:45;;;;;;;;;5.00;4.75;;;;;18.05;48.79;101308.31;6303752;22;45294;-64
2022/07/16 03:34:10;;;;;;;;;7.75;7.25;;;;;18.04;48.64;101311.94;6303565;22;45601;-64
2022/07/16 03:36:36;;;;;;;;;7.50;6.25;;;;;18.02;48.77;101307.63;6307851;22;45125;-62
2022/07/16 03:39:03;;;;;;;;;8.50;5.75;;;;;18.01;49.05;101303.25;6304795;22;45223;-65
2022/07/16 03:41:29;;;;;;;;;8.00;6.50;;;;;17.95;49.52;101312.44;6303274;22;45101;-66
2022/07/16 03:43:54;;;;;;;;;5.25;5.25;;;;;17.90;49.24;101303.88;6303008;22;46078;-66
2022/07/16 03:46:20;;;;;;;;;4.50;4.50;;;;;17.88;48.80;101317.25;6305143;22;45226;-64
2022/07/16 03:48:46;;;;;;;;;5.75;5.75;;;;;17.86;49.03;101319.16;6305379;22;45341;-67
2022/07/16 03:51:12;;;;;;;;;5.75;5.75;;;;;17.83;49.09;101316.69;6304182;22;45330;-65
2022/07/16 03:53:39;;;;;;;;;7.25;5.75;;;;;17.83;48.75;101324.66;6303347;22;45990;-65
2022/07/16 03:56:04;;;;;;;;;8.00;5.25;;;;;17.81;49.21;101321.25;6303990;22;45124;-70
2022/07/16 03:58:30;;;;;;;;;6.75;6.25;;;;;17.80;49.37;101323.06;6304621;22;45248;-67
2022/07/16 04:00:56;;;;;;;;;5.50;5.50;;;;;17.82;49.00;101322.94;6304113;22;45548;-66
2022/07/16 04:03:23;;;;;;;;;7.50;5.75;;;;;17.83;49.02;101321.16;6304498;22;45149;-69
2022/07/16 04:05:50;;;;;;;;;5.75;5.75;;;;;17.82;49.38;101322.94;6275226;22;45261;-69
2022/07/16 04:08:15;;;;;;;;;4.50;4.50;;;;;17.83;49.37;101331.81;6303994;22;45316;-66
2022/07/16 04:10:41;;;;;;;;;6.50;6.50;;;;;17.77;49.16;101328.56;6308289;22;45303;-67
2022/07/16 04:13:06;;;;;;;;;8.75;7.25;;;;;17.84;49.18;101336.19;6305296;22;45215;-65
2022/07/16 04:15:31;;;;;;;;;5.00;5.00;;;;;17.83;49.15;101332.66;6305420;22;45198;-66
2022/07/16 04:17:57;;;;;;;;;8.75;6.50;;;;;17.84;49.24;101339.69;6305406;22;47544;-66
2022/07/16 04:20:22;;;;;;;;;6.75;5.00;;;;;17.87;49.41;101336.00;6278179;22;45448;-62
2022/07/16 04:22:48;;;;;;;;;5.00;4.75;;;;;17.87;49.20;101336.84;6309496;22;46204;-61
2022/07/16 04:25:14;;;;;;;;;5.75;5.75;;;;;17.92;49.15;101342.75;6306232;22;45203;-65
2022/07/16 04:27:40;;;;;;;;;8.50;8.50;;;;;17.92;49.06;101341.91;6305559;22;45177;-61
2022/07/16 04:30:08;;;;;;;;;7.25;7.00;;;;;17.96;49.26;101348.75;6305268;22;45416;-62
2022/07/16 04:32:34;;;;;;;;;6.25;6.25;;;;;17.94;49.14;101337.34;6306535;22;46106;-62
2022/07/16 04:34:59;;;;;;;;;5.50;5.50;;;;;18.01;49.05;101351.16;6304634;22;45241;-64
2022/07/16 04:37:25;;;;;;;;;6.25;6.25;;;;;17.98;49.21;101351.31;6305073;22;45787;-61
2022/07/16 04:39:51;;;;;;;;;4.00;3.00;;;;;17.94;49.41;101354.16;6305329;22;45359;-62
2022/07/16 04:42:16;;;;;;;;;7.00;7.00;;;;;17.99;49.40;101355.69;6304846;22;46209;-63
2022/07/16 04:44:41;;;;;;;;;8.75;8.75;;;;;17.98;49.48;101351.31;6304092;22;45227;-63
2022/07/16 04:47:07;;;;;;;;;7.00;7.00;;;;;18.01;49.19;101353.81;6304595;22;45301;-61
2022/07/16 04:49:32;;;;;;;;;7.25;7.25;;;;;18.07;49.38;101353.50;6307584;22;45464;-64
2022/07/16 04:51:57;;;;;;;;;2.50;2.50;;;;;18.04;49.47;101348.34;6305803;22;49500;-62
2022/07/16 04:54:22;;;;;;;;;7.50;7.50;;;;;18.00;49.75;101358.31;6305416;22;45368;-62
2022/07/16 04:56:48;;;;;;;;;6.50;6.00;;;;;18.02;49.61;101355.53;6305542;22;45324;-65
2022/07/16 04:59:13;;;;;;;;;8.00;8.00;;;;;18.03;49.60;101357.28;6306092;22;45346;-69
2022/07/16 05:01:39;;;;;;;;;6.50;6.50;;;;;18.02;49.57;101351.09;6305276;22;46227;-65
2022/07/16 05:04:04;;;;;;;;;7.25;7.25;;;;;18.07;49.65;101354.34;6303847;22;45133;-67
2022/07/16 05:06:30;;;;;;;;;6.50;6.50;;;;;18.13;49.55;101360.25;6302308;22;45187;-66
2022/07/16 05:08:56;;;;;;;;;6.75;6.75;;;;;18.18;49.53;101360.81;6304968;22;45335;-64
2022/07/16 05:11:22;;;;;;;;;7.50;7.50;;;;;18.35;49.51;101358.00;6276231;22;47408;-62
2022/07/16 05:13:47;;;;;;;;;7.00;7.00;;;;;18.62;49.00;101362.59;6304444;22;45254;-66
2022/07/16 05:16:13;;;;;;;;;8.00;7.00;;;;;18.91;48.71;101361.72;6277664;22;45268;-66
2022/07/16 05:18:38;;;;;;;;;6.25;6.25;;;;;19.24;48.50;101361.41;6307834;22;45559;-66
2022/07/16 05:21:04;;;;;;;;;7.00;7.00;;;;;19.57;47.35;101353.97;6303228;22;46029;-63
2022/07/16 05:23:29;;;;;;;;;8.25;8.25;;;;;19.90;47.13;101352.69;6304216;22;45325;-61
2022/07/16 05:25:54;;;;;;;;;6.25;6.25;;;;;20.22;46.52;101349.66;6304886;22;45758;-66
2022/07/16 05:28:19;;;;;;;;;8.00;6.00;;;;;20.51;45.89;101341.44;6303973;22;45310;-67
2022/07/16 05:30:45;;;;;;;;;5.25;5.00;;;;;20.75;45.38;101348.66;6303673;22;46512;-62
2022/07/16 05:33:10;;;;;;;;;6.00;6.00;;;;;20.84;45.03;101350.72;6275845;22;45315;-65
2022/07/16 05:35:36;;;;;;;;;6.25;6.25;;;;;20.98;44.96;101339.03;6303908;22;45278;-64
2022/07/16 05:38:01;;;;;;;;;5.50;5.50;;;;;21.12;44.60;101345.19;6303951;22;45331;-66
2022/07/16 05:40:26;;;;;;;;;4.00;4.00;;;;;21.25;44.26;101351.34;6308105;22;45277;-63
2022/07/16 05:42:52;;;;;;;;;4.75;4.75;;;;;21.37;43.76;101348.75;6281741;22;45938;-63
2022/07/16 05:45:17;;;;;;;;;5.00;5.00;;;;;21.52;43.59;101360.13;6304302;22;45309;-63
2022/07/16 05:47:43;;;;;;;;;5.25;5.25;;;;;21.57;43.28;101357.97;6304364;22;45566;-68
2022/07/16 05:50:09;;;;;;;;;6.50;5.00;;;;;21.59;43.52;101364.91;6303295;22;47031;-67
2022/07/16 05:52:35;;;;;;;;;4.25;4.25;;;;;21.60;42.95;101355.91;6303660;22;45345;-66
2022/07/16 05:55:00;;;;;;;;;5.00;5.00;;;;;21.66;42.86;101370.69;6308461;22;45108;-62
2022/07/16 05:57:26;;;;;;;;;6.25;5.75;;;;;21.58;43.19;101367.72;6306364;22;45389;-60
2022/07/16 05:59:51;;;;;;;;;4.25;4.25;;;;;21.51;43.11;101375.34;6304173;22;45734;-61
2022/07/16 06:02:17;;;;;;;;;8.00;8.00;;;;;21.52;43.28;101384.22;6303979;22;45206;-61
2022/07/16 06:04:42;;;;;;;;;7.75;6.00;;;;;21.38;42.94;101379.88;6303707;22;45473;-61
2022/07/16 06:07:07;;;;;;;;;6.50;6.50;;;;;21.30;43.59;101385.81;6303726;22;45156;-62
2022/07/16 06:09:32;;;;;;;;;8.75;5.75;;;;;21.25;43.46;101377.28;6303590;22;45297;-63
2022/07/16 06:11:58;;;;;;;;;6.75;3.75;;;;;21.11;43.87;101392.47;6304559;22;45161;-62
2022/07/16 06:14:23;;;;;;;;;5.75;5.00;;;;;20.95;44.23;101391.88;6303839;22;46453;-62
2022/07/16 06:16:49;;;;;;;;;8.00;8.00;;;;;20.88;44.38;101394.16;6304658;22;45463;-70
2022/07/16 06:19:14;;;;;;;;;8.00;7.25;;;;;20.84;44.23;101392.66;6304277;22;45489;-65
2022/07/16 06:21:40;;;;;;;;;8.75;6.00;;;;;20.70;44.04;101399.81;6305017;22;45261;-67
2022/07/16 06:24:05;;;;;;;;;6.00;6.00;;;;;20.46;44.54;101394.34;6305194;22;45210;-68
2022/07/16 06:26:31;;;;;;;;;6.00;6.00;;;;;20.29;44.67;101401.72;6306877;22;45272;-66
2022/07/16 06:28:56;;;;;;;;;9.00;8.00;;;;;20.27;45.40;101408.97;6305059;22;45803;-68
2022/07/16 06:31:22;;;;;;;;;7.25;7.25;;;;;20.24;45.46;101409.19;6304209;22;45414;-64
2022/07/16 06:33:47;;;;;;;;;7.00;7.00;;;;;20.19;45.70;101410.44;6304255;22;45716;-66
2022/07/16 06:36:12;;;;;;;;;8.75;7.50;;;;;20.11;45.48;101409.16;6304512;22;45287;-69
2022/07/16 06:38:38;;;;;;;;;5.75;5.75;;;;;20.07;45.49;101423.66;6304460;22;46427;-69
2022/07/16 06:41:03;;;;;;;;;4.50;4.50;;;;;20.00;45.73;101419.69;6304320;22;45274;-65
2022/07/16 06:43:29;;;;;;;;;8.00;6.50;;;;;19.97;46.05;101431.44;6306178;22;45671;-68
2022/07/16 06:45:54;;;;;;;;;5.75;5.75;;;;;19.94;46.28;101428.97;6303912;22;45287;-65
2022/07/16 06:48:20;;;;;;;;;5.75;5.75;;;;;19.87;46.50;101437.47;6304085;22;45947;-66
2022/07/16 06:50:45;;;;;;;;;7.25;7.25;;;;;19.75;46.37;101431.09;6305670;22;45174;-64
2022/07/16 06:53:10;;;;;;;;;5.50;5.50;;;;;19.74;46.33;101442.75;6308384;22;45194;-64
2022/07/16 06:55:36;;;;;;;;;5.75;5.75;;;;;19.75;46.17;101442.66;6305418;22;45366;-64
2022/07/16 06:58:01;;;;;;;;;5.25;5.25;;;;;19.77;46.75;101453.22;6275931;22;45204;-69
2022/07/16 07:00:26;;;;;;;;;8.00;7.00;;;;;19.74;46.25;101450.75;6303495;22;45230;-65
2022/07/16 07:02:52;;;;;;;;;5.50;5.50;;;;;19.75;46.71;101444.44;6303287;22;45154;-67
2022/07/16 07:05:17;;;;;;;;;5.25;5.25;;;;;19.76;46.64;101448.84;6303334;22;45299;-69
2022/07/16 07:07:43;;;;;;;;;6.00;6.00;;;;;19.82;46.47;101449.31;6303384;22;46100;-68
2022/07/16 07:10:08;;;;;;;;;5.25;5.25;;;;;19.84;46.75;101446.50;6303507;22;45229;-64
2022/07/16 07:12:34;;;;;;;;;8.25;6.25;;;;;19.91;46.24;101455.88;6304867;22;45516;-66
2022/07/16 07:15:00;;;;;;;;;6.00;6.00;;;;;19.94;46.59;101453.00;6304036;22;45291;-69
2022/07/16 07:17:25;;;;;;;;;9.75;6.75;;;;;19.99;46.17;101450.88;6303984;22;45933;-64
2022/07/16 07:19:51;;;;;;;;;8.00;7.25;;;;;20.14;46.21;101446.34;6304282;22;45299;-68
2022/07/16 07:22:16;;;;;;;;;4.75;4.75;;;;;20.26;46.01;101444.66;6277140;22;45748;-66
2022/07/16 07:24:41;;;;;;;;;7.00;4.75;;;;;20.34;45.40;101449.47;6304793;22;45388;-65
2022/07/16 07:27:07;;;;;;;;;6.75;5.25;;;;;20.47;45.20;101453.97;6305224;22;46213;-67
2022/07/16 07:29:32;;;;;;;;;6.00;6.00;;;;;20.53;45.09;101442.84;6306186;22;45214;-63
2022/07/16 07:31:58;;;;;;;;;5.00;5.00;;;;;20.55;45.12;101438.25;6277543;22;45331;-63
2022/07/16 07:34:23;;;;;;;;;6.25;6.25;;;;;20.72;45.20;101453.16;6303991;22;45273;-63
2022/07/16 07:36:48;;;;;;;;;6.00;5.25;;;;;20.85;45.16;101451.34;6303315;22;45238;-69
2022/07/16 07:39:14;;;;;;;;;6.00;6.00;;;;;20.93;44.55;101460.66;6303102;22;45171;-68
2022/07/16 07:41:39;;;;;;;;;5.00;5.00;;;;;21.00;44.22;101460.13;6303516;22;45191;-69
2022/07/16 07:44:04;;;;;;;;;5.75;5.75;;;;;21.07;44.11;101462.38;6303850;22;45415;-69
2022/07/16 07:46:30;;;;;;;;;5.00;5.00;;;;;21.11;44.28;101455.84;6304232;22;45269;-67
2022/07/16 07:48:55;;;;;;;;;6.50;6.50;;;;;21.22;44.03;101453.25;6304636;22;45195;-69
2022/07/16 07:51:21;;;;;;;;;5.50;5.50;;;;;21.34;43.80;101464.91;6304234;22;45313;-67
2022/07/16 07:53:47;;;;;;;;;7.25;7.00;;;;;21.41;43.91;101451.91;6304640;22;45525;-68
2022/07/16 07:56:13;;;;;;;;;8.25;6.50;;;;;21.54;43.50;101451.88;6304295;22;46294;-68
2022/07/16 07:58:39;;;;;;;;;6.50;5.00;;;;;21.54;43.10;101458.06;6305411;22;45258;-67
2022/07/16 08:01:05;;;;;;;;;6.75;6.75;;;;;21.61;43.01;101463.84;6304887;22;45313;-69
2022/07/16 08:03:30;;;;;;;;;6.75;6.50;;;;;21.66;43.43;101437.63;6304506;22;45498;-69
2022/07/16 08:05:55;;;;;;;;;5.50;5.50;;;;;21.78;42.87;101451.94;6303594;22;46206;-70
2022/07/16 08:08:21;;;;;;;;;4.00;4.00;;;;;21.88;42.38;101450.28;6304416;22;45417;-67
2022/07/16 08:10:46;;;;;;;;;6.50;5.00;;;;;22.00;42.55;101455.69;6276219;22;45264;-68
2022/07/16 08:13:12;;;;;;;;;7.00;5.25;;;;;22.09;42.17;101451.44;6305229;22;45183;-68
2022/07/16 08:15:37;;;;;;;;;5.00;5.00;;;;;22.17;42.03;101460.63;6309053;22;45559;-70
2022/07/16 08:18:03;;;;;;;;;6.00;6.00;;;;;22.24;41.70;101455.66;6304669;22;45401;-68
2022/07/16 08:20:28;;;;;;;;;4.00;4.00;;;;;22.35;41.45;101462.88;6304529;22;45332;-67
2022/07/16 08:22:53;;;;;;;;;6.00;5.25;;;;;22.48;41.23;101460.16;6305100;22;45337;-67
2022/07/16 08:28:03;;;;;;;;;5.00;5.00;;;;;22.70;40.71;101458.47;6304600;22;45378;-64
2022/07/16 08:30:28;;;;;;;;;4.00;4.00;;;;;22.80;40.80;101453.25;6304277;22;45231;-69
2022/07/16 08:32:54;;;;;;;;;4.50;4.50;;;;;22.87;40.35;101455.31;6304804;22;45439;-66
2022/07/16 08:35:19;;;;;;;;;4.25;4.25;;;;;22.95;40.49;101451.19;6304277;22;45232;-67
2022/07/16 08:37:47;;;;;;;;;4.25;4.25;;;;;23.02;39.86;101449.72;6304614;22;45159;-66
2022/07/16 08:40:18;;;;;;;;;4.00;4.00;;;;;23.11;39.91;101453.50;6304253;22;45148;-69
2022/07/16 08:42:43;;;;;;;;;8.00;7.00;;;;;23.23;39.19;101457.03;6304673;22;45336;-68
2022/07/16 08:45:10;;;;;;;;;3.75;3.25;;;;;23.31;38.71;101459.97;6277553;22;46292;-65
2022/07/16 08:47:37;;;;;;;;;5.00;5.00;;;;;23.39;38.74;101462.06;6305722;22;45130;-70
2022/07/16 08:50:08;;;;;;;;;5.25;5.25;;;;;23.41;38.86;101446.66;6305945;22;45120;-70
2022/07/16 09:18:34;;;;;;;;;6.00;6.00;;;;;24.23;36.33;101472.19;5069048;28;45378;-68
2022/07/16 09:21:01;;;;;;;;;4.50;4.50;;;;;24.39;36.80;101468.19;5052028;28;45338;-65
2022/07/16 09:23:30;;;;;;;;;2.75;2.75;;;;;24.50;36.68;101466.31;5052381;28;45354;-67
2022/07/16 09:26:01;;;;;;;;;5.00;3.25;;;;;24.50;35.93;101463.63;5052350;28;45433;-65
2022/07/16 09:28:38;;;;;;;;;4.00;4.00;;;;;24.57;36.27;101465.78;5050392;28;46909;-66
2022/07/16 09:31:04;;;;;;;;;11.75;8.00;;;;;24.70;35.66;101473.66;5051554;28;45473;-69
2022/07/16 09:33:30;;;;;;;;;5.75;5.50;;;;;24.82;35.83;101475.31;5051721;28;45444;-66
2022/07/16 09:36:11;;;;;;;;;7.25;7.25;;;;;24.89;35.73;101470.22;5051978;28;45550;-67
2022/07/16 09:38:51;;;;;;;;;7.25;6.00;;;;;25.02;35.19;101473.56;5051436;28;45510;-66
2022/07/16 09:41:18;;;;;;;;;5.50;5.50;;;;;25.08;35.33;101472.16;5051047;28;45459;-67
2022/07/16 09:43:44;;;;;;;;;6.50;6.50;;;;;25.15;34.87;101462.56;5051270;28;45246;-68
2022/07/16 09:46:16;;;;;;;;;7.00;6.50;;;;;25.29;35.02;101469.41;5051461;28;45657;-69
2022/07/16 09:48:43;;;;;;;;;7.50;7.00;;;;;25.33;34.39;101454.69;5051049;28;47184;-68
2022/07/16 09:51:14;;;;;;;;;7.75;7.75;;;;;25.41;33.19;101458.53;5051166;28;45240;-69
2022/07/16 09:53:43;;;;;;;;;7.00;5.00;;;;;25.42;33.47;101463.78;5050989;28;45441;-65
2022/07/16 09:56:12;;;;;;;;;5.50;5.50;;;;;25.46;33.51;101465.25;5051327;28;45553;-69
2022/07/16 09:58:37;;;;;;;;;5.50;4.00;;;;;25.51;33.75;101467.53;5050701;28;45389;-68
2022/07/16 10:01:04;;;;;;;;;6.75;4.00;;;;;25.56;32.93;101469.81;5050700;28;45338;-69
2022/07/16 10:03:30;;;;;;;;;4.00;3.50;;;;;25.54;32.26;101475.31;5051371;28;45435;-71
2022/07/16 10:05:56;;;;;;;;;5.25;3.75;;;;;25.55;32.58;101470.81;5049548;28;45682;-67
2022/07/16 10:08:23;;;;;;;;;5.00;5.00;;;;;25.64;32.54;101470.81;5050611;28;46433;-68
2022/07/16 10:10:49;;;;;;;;;6.25;6.25;;;;;25.74;32.87;101484.31;5037737;28;45295;-70
2022/07/16 10:13:17;;;;;;;;;3.25;3.25;;;;;25.85;32.76;101475.22;5037612;28;45154;-67
2022/07/16 10:15:43;;;;;;;;;10.25;6.50;;;;;25.93;33.01;101482.63;5037467;28;45426;-66
2022/07/16 10:18:38;;;;;;;;;5.75;5.75;;;;;26.00;32.76;101483.75;5036813;28;46391;-65
2022/07/16 10:21:09;;;;;;;;;5.00;5.00;;;;;26.04;32.50;101479.78;5037217;28;45441;-68
2022/07/16 10:23:37;;;;;;;;;4.75;4.75;;;;;25.99;31.91;101478.53;5037337;28;45353;-66
2022/07/16 10:26:09;;;;;;;;;5.00;5.00;;;;;25.97;32.20;101484.03;5037422;28;45577;-66
2022/07/16 10:28:54;;;;;;;;;5.50;5.50;;;;;26.02;32.66;101481.78;5036865;28;45335;-68
2022/07/16 10:31:36;;;;;;;;;6.25;5.50;;;;;26.12;32.32;101471.00;5036199;28;45273;-68
2022/07/16 10:34:16;;;;;;;;;11.50;9.75;;;;;26.24;32.54;101479.81;5034903;28;45312;-65
2022/07/16 10:36:50;;;;;;;;;3.25;3.25;;;;;26.29;31.60;101474.84;5034818;28;45435;-68
2022/07/16 10:39:17;;;;;;;;;4.75;4.75;;;;;26.24;31.76;101474.41;5034794;28;45283;-68
2022/07/16 10:41:51;;;;;;;;;4.75;4.75;;;;;26.23;32.13;101473.56;5036204;28;45204;-66
2022/07/16 10:44:17;;;;;;;;;4.50;4.50;;;;;26.24;31.66;101477.97;5036221;28;45181;-67
2022/07/16 10:46:55;;;;;;;;;7.25;5.75;;;;;26.28;31.34;101475.00;5036303;28;45355;-67
2022/07/16 10:49:22;;;;;;;;;7.25;7.00;;;;;26.37;31.30;101468.72;5035646;28;47077;-66
2022/07/16 10:51:56;;;;;;;;;11.50;9.75;;;;;26.51;30.36;101470.13;5035933;28;45336;-68
2022/07/16 10:54:22;;;;;;;;;8.75;7.75;;;;;26.52;30.13;101471.84;5036272;28;45402;-67
2022/07/16 10:56:52;;;;;;;;;5.00;5.00;;;;;26.53;30.23;101476.25;5036888;28;45521;-67
2022/07/16 10:59:27;;;;;;;;;6.00;6.00;;;;;26.54;29.91;101472.53;5035953;28;46262;-64
2022/07/16 11:01:55;;;;;;;;;8.25;6.75;;;;;26.61;29.89;101462.00;5036106;28;45235;-68
2022/07/16 11:04:34;;;;;;;;;4.00;4.00;;;;;26.78;29.99;101472.03;5036202;28;45410;-69
2022/07/16 11:07:04;;;;;;;;;4.75;4.75;;;;;26.89;30.02;101473.75;5036561;28;45560;-66
2022/07/16 11:09:35;;;;;;;;;5.50;5.50;;;;;26.99;29.32;101473.69;5034829;28;47324;-67
2022/07/16 11:12:11;;;;;;;;;6.25;6.25;;;;;27.08;29.33;101471.97;5036289;28;45232;-67
2022/07/16 11:14:37;;;;;;;;;3.25;3.25;;;;;27.11;28.77;101472.53;5034919;28;45327;-67
2022/07/16 11:17:03;;;;;;;;;6.50;6.50;;;;;27.13;28.54;101477.78;5036458;28;45215;-65
2022/07/16 11:19:29;;;;;;;;;6.50;6.50;;;;;27.10;29.61;101468.13;5034514;28;47729;-64
2022/07/16 11:22:01;;;;;;;;;11.25;9.75;;;;;27.14;29.42;101457.88;5034854;28;45370;-66
2022/07/16 11:24:28;;;;;;;;;5.50;5.50;;;;;27.26;29.16;101458.53;5034704;28;45381;-67
2022/07/16 11:26:55;;;;;;;;;7.50;7.50;;;;;27.41;29.33;101458.84;5036072;28;45469;-65
2022/07/16 11:29:23;;;;;;;;;7.00;7.00;;;;;27.50;29.13;101452.56;5035582;28;45349;-66
2022/07/16 11:31:49;;;;;;;;;5.00;4.75;;;;;27.56;28.21;101459.22;5035724;28;45314;-66
2022/07/16 11:34:16;;;;;;;;;4.75;4.75;;;;;27.56;28.18;101448.41;5035757;28;45567;-67
2022/07/16 11:36:48;;;;;;;;;5.25;4.25;;;;;27.59;28.23;101463.50;5034336;28;45298;-66
2022/07/16 11:39:19;;;;;;;;;7.00;7.00;;;;;27.60;29.07;101459.78;5035117;28;46164;-64
2022/07/16 11:41:47;;;;;;;;;7.00;6.50;;;;;27.64;28.18;101456.63;5035513;28;45268;-66
2022/07/16 11:44:24;;;;;;;;;5.75;5.75;;;;;27.75;28.23;101466.38;5035293;28;45460;-64
2022/07/16 11:47:11;;;;;;;;;6.50;6.00;;;;;27.83;28.01;101457.47;5035996;28;45279;-65
2022/07/16 11:49:42;;;;;;;;;10.25;8.00;;;;;27.90;27.40;101449.59;5035452;28;46220;-66
2022/07/16 11:52:26;;;;;;;;;6.50;6.50;;;;;27.79;27.61;101475.88;5035409;28;45414;-68